sensor_id;sensor_type;location;lat;lon;timestamp;pressure;altitude;pressure_sealevel;temperature;humidity
54329;BME280;40710;51.120;13.136;2022-12-24T00:00:49;98078.13;;;17.02;57.46
54329;BME280;40710;51.120;13.136;2022-12-24T00:03:18;98097.09;;;16.71;57.99
54329;BME280;40710;51.120;13.136;2022-12-24T00:05:42;98109.31;;;16.64;58.25
54329;BME280;40710;51.120;13.136;2022-12-24T00:08:07;98111.09;;;16.18;59.79
54329;BME280;40710;51.120;13.136;2022-12-24T00:10:32;98118.78;;;16.21;59.05
54329;BME280;40710;51.120;13.136;2022-12-24T00:12:56;98118.63;;;16.22;59.71
54329;BME280;40710;51.120;13.136;2022-12-24T00:15:21;98113.38;;;15.85;61.14
54329;BME280;40710;51.120;13.136;2022-12-24T00:17:45;98117.31;;;15.71;61.73
54329;BME280;40710;51.120;13.136;2022-12-24T00:20:10;98116.03;;;15.85;60.20
54329;BME280;40710;51.120;13.136;2022-12-24T00:22:35;98133.34;;;14.33;64.36
54329;BME280;40710;51.120;13.136;2022-12-24T00:24:59;98133.59;;;14.30;65.44
54329;BME280;40710;51.120;13.136;2022-12-24T00:27:24;98132.31;;;15.23;63.56
54329;BME280;40710;51.120;13.136;2022-12-24T00:29:48;98163.44;;;13.49;67.65
54329;BME280;40710;51.120;13.136;2022-12-24T00:32:13;98163.75;;;13.02;68.97
54329;BME280;40710;51.120;13.136;2022-12-24T00:34:38;98137.75;;;14.73;66.66
54329;BME280;40710;51.120;13.136;2022-12-24T00:37:04;98137.47;;;14.86;64.17
54329;BME280;40710;51.120;13.136;2022-12-24T00:39:29;98144.56;;;14.25;65.27
54329;BME280;40710;51.120;13.136;2022-12-24T00:41:54;98132.31;;;14.65;63.68
54329;BME280;40710;51.120;13.136;2022-12-24T00:44:18;98133.56;;;14.61;64.09
54329;BME280;40710;51.120;13.136;2022-12-24T00:46:43;98130.38;;;15.25;61.32
54329;BME280;40710;51.120;13.136;2022-12-24T00:49:08;98129.81;;;14.83;61.98
54329;BME280;40710;51.120;13.136;2022-12-24T00:51:34;98129.41;;;14.87;61.86
54329;BME280;40710;51.120;13.136;2022-12-24T00:53:59;98129.97;;;15.01;62.54
54329;BME280;40710;51.120;13.136;2022-12-24T00:56:24;98126.78;;;14.97;61.20
54329;BME280;40710;51.120;13.136;2022-12-24T00:58:49;98131.44;;;15.42;59.69
54329;BME280;40710;51.120;13.136;2022-12-24T01:01:13;98158.31;;;13.78;63.14
54329;BME280;40710;51.120;13.136;2022-12-24T01:03:38;98184.81;;;12.38;68.11
54329;BME280;40710;51.120;13.136;2022-12-24T01:06:09;98188.78;;;12.76;66.85
54329;BME280;40710;51.120;13.136;2022-12-24T01:08:34;98195.38;;;13.14;65.50
54329;BME280;40710;51.120;13.136;2022-12-24T01:11:00;98168.66;;;15.21;60.67
54329;BME280;40710;51.120;13.136;2022-12-24T01:13:25;98169.50;;;14.92;59.33
54329;BME280;40710;51.120;13.136;2022-12-24T01:15:50;98169.09;;;15.07;60.34
54329;BME280;40710;51.120;13.136;2022-12-24T01:18:15;98158.34;;;15.38;58.90
54329;BME280;40710;51.120;13.136;2022-12-24T01:20:39;98162.72;;;16.23;56.64
54329;BME280;40710;51.120;13.136;2022-12-24T01:23:04;98167.03;;;16.24;56.11
54329;BME280;40710;51.120;13.136;2022-12-24T01:25:29;98180.19;;;15.49;57.86
54329;BME280;40710;51.120;13.136;2022-12-24T01:27:53;98181.06;;;15.30;58.73
54329;BME280;40710;51.120;13.136;2022-12-24T01:30:18;98178.38;;;15.60;58.97
54329;BME280;40710;51.120;13.136;2022-12-24T01:32:42;98185.38;;;14.42;61.24
54329;BME280;40710;51.120;13.136;2022-12-24T01:35:07;98182.03;;;15.29;58.83
54329;BME280;40710;51.120;13.136;2022-12-24T01:37:33;98198.84;;;13.98;62.60
54329;BME280;40710;51.120;13.136;2022-12-24T01:39:57;98188.03;;;14.42;61.95
54329;BME280;40710;51.120;13.136;2022-12-24T01:42:45;98193.81;;;14.16;61.69
54329;BME280;40710;51.120;13.136;2022-12-24T01:45:45;98204.97;;;14.61;61.00
54329;BME280;40710;51.120;13.136;2022-12-24T01:50:50;98184.81;;;14.29;60.96
54329;BME280;40710;51.120;13.136;2022-12-24T01:53:18;98189.69;;;14.84;59.75
54329;BME280;40710;51.120;13.136;2022-12-24T01:55:44;98197.22;;;14.38;60.48
54329;BME280;40710;51.120;13.136;2022-12-24T01:58:13;98210.19;;;14.10;60.70
54329;BME280;40710;51.120;13.136;2022-12-24T02:00:38;98219.16;;;13.98;61.87
54329;BME280;40710;51.120;13.136;2022-12-24T02:03:02;98225.31;;;14.08;62.29
54329;BME280;40710;51.120;13.136;2022-12-24T02:05:33;98233.06;;;14.00;62.52
54329;BME280;40710;51.120;13.136;2022-12-24T02:08:03;98225.41;;;14.28;62.34
54329;BME280;40710;51.120;13.136;2022-12-24T02:10:28;98231.03;;;14.44;62.40
54329;BME280;40710;51.120;13.136;2022-12-24T02:12:53;98243.78;;;14.39;62.16
54329;BME280;40710;51.120;13.136;2022-12-24T02:15:19;98242.94;;;14.60;61.45
54329;BME280;40710;51.120;13.136;2022-12-24T02:23:43;98248.91;;;14.00;63.16
54329;BME280;40710;51.120;13.136;2022-12-24T02:29:29;98266.47;;;13.48;64.85
54329;BME280;40710;51.120;13.136;2022-12-24T02:35:03;98259.13;;;14.45;62.70
54329;BME280;40710;51.120;13.136;2022-12-24T02:37:37;98264.41;;;14.14;62.45
54329;BME280;40710;51.120;13.136;2022-12-24T02:40:15;98272.88;;;13.66;63.42
54329;BME280;40710;51.120;13.136;2022-12-24T02:42:45;98271.69;;;14.22;62.38
54329;BME280;40710;51.120;13.136;2022-12-24T02:45:17;98287.75;;;13.88;63.29
54329;BME280;40710;51.120;13.136;2022-12-24T02:47:43;98288.81;;;13.43;64.12
54329;BME280;40710;51.120;13.136;2022-12-24T02:50:11;98275.97;;;14.13;62.49
54329;BME280;40710;51.120;13.136;2022-12-24T02:52:37;98281.38;;;14.43;61.87
54329;BME280;40710;51.120;13.136;2022-12-24T02:55:08;98275.28;;;13.90;62.58
54329;BME280;40710;51.120;13.136;2022-12-24T03:00:40;98301.91;;;14.29;61.96
54329;BME280;40710;51.120;13.136;2022-12-24T03:03:18;98313.97;;;13.80;63.86
54329;BME280;40710;51.120;13.136;2022-12-24T03:06:08;98310.00;;;13.53;64.51
54329;BME280;40710;51.120;13.136;2022-12-24T03:08:49;98305.75;;;14.46;62.70
54329;BME280;40710;51.120;13.136;2022-12-24T03:11:18;98311.38;;;14.32;62.88
54329;BME280;40710;51.120;13.136;2022-12-24T03:13:45;98313.69;;;14.25;62.94
54329;BME280;40710;51.120;13.136;2022-12-24T03:16:15;98305.56;;;14.38;62.23
54329;BME280;40710;51.120;13.136;2022-12-24T03:18:45;98311.06;;;14.25;61.37
54329;BME280;40710;51.120;13.136;2022-12-24T03:21:17;98324.47;;;13.91;63.51
54329;BME280;40710;51.120;13.136;2022-12-24T03:23:44;98321.56;;;13.73;64.22
54329;BME280;40710;51.120;13.136;2022-12-24T03:26:11;98334.56;;;13.65;64.00
54329;BME280;40710;51.120;13.136;2022-12-24T03:28:38;98325.22;;;13.61;63.14
54329;BME280;40710;51.120;13.136;2022-12-24T03:31:05;98319.75;;;14.37;62.24
54329;BME280;40710;51.120;13.136;2022-12-24T03:33:29;98317.84;;;14.18;61.85
54329;BME280;40710;51.120;13.136;2022-12-24T03:35:54;98314.03;;;13.90;62.02
54329;BME280;40710;51.120;13.136;2022-12-24T03:38:19;98319.97;;;14.24;61.11
54329;BME280;40710;51.120;13.136;2022-12-24T03:40:43;98321.47;;;14.48;60.84
54329;BME280;40710;51.120;13.136;2022-12-24T03:43:08;98336.31;;;13.76;62.02
54329;BME280;40710;51.120;13.136;2022-12-24T03:45:32;98337.75;;;14.01;61.44
54329;BME280;40710;51.120;13.136;2022-12-24T03:47:57;98345.34;;;13.94;61.20
54329;BME280;40710;51.120;13.136;2022-12-24T03:50:22;98333.84;;;14.68;58.78
54329;BME280;40710;51.120;13.136;2022-12-24T03:52:46;98347.41;;;13.91;60.77
54329;BME280;40710;51.120;13.136;2022-12-24T03:55:11;98339.91;;;13.54;61.32
54329;BME280;40710;51.120;13.136;2022-12-24T03:57:35;98344.09;;;13.77;60.97
54329;BME280;40710;51.120;13.136;2022-12-24T04:00:00;98352.44;;;13.73;60.87
54329;BME280;40710;51.120;13.136;2022-12-24T04:02:25;98347.88;;;13.96;59.91
54329;BME280;40710;51.120;13.136;2022-12-24T04:04:50;98355.22;;;14.13;59.96
54329;BME280;40710;51.120;13.136;2022-12-24T04:07:15;98365.25;;;14.19;59.93
54329;BME280;40710;51.120;13.136;2022-12-24T04:09:39;98360.44;;;14.04;58.65
54329;BME280;40710;51.120;13.136;2022-12-24T04:12:04;98376.03;;;13.74;61.24
54329;BME280;40710;51.120;13.136;2022-12-24T04:14:28;98366.69;;;14.03;59.74
54329;BME280;40710;51.120;13.136;2022-12-24T04:16:53;98379.81;;;13.93;59.79
54329;BME280;40710;51.120;13.136;2022-12-24T04:19:18;98380.59;;;14.47;58.86
54329;BME280;40710;51.120;13.136;2022-12-24T04:21:42;98390.03;;;14.40;58.63
54329;BME280;40710;51.120;13.136;2022-12-24T04:24:07;98389.69;;;14.12;58.88
54329;BME280;40710;51.120;13.136;2022-12-24T04:26:31;98403.91;;;13.67;59.95
54329;BME280;40710;51.120;13.136;2022-12-24T04:28:56;98398.94;;;13.85;58.87
54329;BME280;40710;51.120;13.136;2022-12-24T04:31:20;98401.06;;;14.45;57.65
54329;BME280;40710;51.120;13.136;2022-12-24T04:33:45;98396.59;;;14.03;58.20
54329;BME280;40710;51.120;13.136;2022-12-24T04:36:13;98411.22;;;14.28;58.26
54329;BME280;40710;51.120;13.136;2022-12-24T04:38:38;98409.94;;;14.23;57.46
54329;BME280;40710;51.120;13.136;2022-12-24T04:41:10;98406.91;;;14.90;56.04
54329;BME280;40710;51.120;13.136;2022-12-24T04:43:35;98415.94;;;14.67;56.03
54329;BME280;40710;51.120;13.136;2022-12-24T04:46:27;98407.84;;;14.59;56.36
54329;BME280;40710;51.120;13.136;2022-12-24T04:48:55;98410.97;;;14.52;56.18
54329;BME280;40710;51.120;13.136;2022-12-24T04:51:21;98428.34;;;14.13;56.93
54329;BME280;40710;51.120;13.136;2022-12-24T04:53:46;98423.03;;;14.45;56.84
54329;BME280;40710;51.120;13.136;2022-12-24T04:56:32;98428.91;;;14.70;55.98
54329;BME280;40710;51.120;13.136;2022-12-24T04:58:58;98421.13;;;14.99;55.48
54329;BME280;40710;51.120;13.136;2022-12-24T05:01:27;98432.81;;;14.54;56.63
54329;BME280;40710;51.120;13.136;2022-12-24T05:03:54;98441.66;;;13.90;57.77
54329;BME280;40710;51.120;13.136;2022-12-24T05:06:22;98436.97;;;14.47;57.19
54329;BME280;40710;51.120;13.136;2022-12-24T05:08:47;98465.75;;;13.97;58.23
54329;BME280;40710;51.120;13.136;2022-12-24T05:11:12;98456.00;;;14.83;56.00
54329;BME280;40710;51.120;13.136;2022-12-24T05:13:37;98470.06;;;13.66;57.37
54329;BME280;40710;51.120;13.136;2022-12-24T05:16:03;98459.63;;;14.08;56.88
54329;BME280;40710;51.120;13.136;2022-12-24T05:18:28;98468.38;;;14.08;57.36
54329;BME280;40710;51.120;13.136;2022-12-24T05:20:52;98482.16;;;14.44;57.04
54329;BME280;40710;51.120;13.136;2022-12-24T05:23:22;98474.50;;;14.41;56.71
54329;BME280;40710;51.120;13.136;2022-12-24T05:26:36;98486.47;;;14.13;57.00
54329;BME280;40710;51.120;13.136;2022-12-24T05:29:00;98496.59;;;14.40;56.82
54329;BME280;40710;51.120;13.136;2022-12-24T05:31:27;98500.03;;;13.76;57.29
54329;BME280;40710;51.120;13.136;2022-12-24T05:33:52;98493.91;;;13.87;57.17
54329;BME280;40710;51.120;13.136;2022-12-24T05:36:17;98482.53;;;14.07;56.61
54329;BME280;40710;51.120;13.136;2022-12-24T05:38:42;98491.31;;;14.40;55.74
54329;BME280;40710;51.120;13.136;2022-12-24T05:41:07;98486.31;;;14.26;56.12
54329;BME280;40710;51.120;13.136;2022-12-24T05:43:32;98495.44;;;14.54;55.44
54329;BME280;40710;51.120;13.136;2022-12-24T05:46:05;98502.56;;;14.53;55.99
54329;BME280;40710;51.120;13.136;2022-12-24T05:48:29;98509.56;;;14.43;55.45
54329;BME280;40710;51.120;13.136;2022-12-24T05:50:55;98515.81;;;14.42;55.44
54329;BME280;40710;51.120;13.136;2022-12-24T05:53:20;98514.16;;;14.30;55.99
54329;BME280;40710;51.120;13.136;2022-12-24T05:55:45;98518.31;;;14.44;55.13
54329;BME280;40710;51.120;13.136;2022-12-24T05:58:09;98524.66;;;14.20;55.93
54329;BME280;40710;51.120;13.136;2022-12-24T06:00:34;98531.63;;;13.66;56.74
54329;BME280;40710;51.120;13.136;2022-12-24T06:02:59;98539.78;;;14.29;55.83
54329;BME280;40710;51.120;13.136;2022-12-24T06:05:24;98557.56;;;14.27;55.49
54329;BME280;40710;51.120;13.136;2022-12-24T06:07:48;98565.88;;;14.11;54.78
54329;BME280;40710;51.120;13.136;2022-12-24T06:10:13;98556.00;;;14.25;54.63
54329;BME280;40710;51.120;13.136;2022-12-24T06:12:37;98559.44;;;13.70;55.42
54329;BME280;40710;51.120;13.136;2022-12-24T06:15:02;98559.91;;;13.98;55.58
54329;BME280;40710;51.120;13.136;2022-12-24T06:17:26;98553.84;;;14.18;54.63
54329;BME280;40710;51.120;13.136;2022-12-24T06:19:51;98560.84;;;13.97;54.89
54329;BME280;40710;51.120;13.136;2022-12-24T06:22:16;98565.78;;;14.02;54.47
54329;BME280;40710;51.120;13.136;2022-12-24T06:24:40;98582.25;;;13.49;55.02
54329;BME280;40710;51.120;13.136;2022-12-24T06:27:05;98576.84;;;13.84;54.56
54329;BME280;40710;51.120;13.136;2022-12-24T06:29:29;98585.88;;;13.82;54.58
54329;BME280;40710;51.120;13.136;2022-12-24T06:31:54;98575.31;;;14.36;52.03
54329;BME280;40710;51.120;13.136;2022-12-24T06:34:18;98594.13;;;13.54;54.06
54329;BME280;40710;51.120;13.136;2022-12-24T06:36:43;98597.25;;;13.37;54.72
54329;BME280;40710;51.120;13.136;2022-12-24T06:39:07;98591.94;;;14.16;53.46
54329;BME280;40710;51.120;13.136;2022-12-24T06:41:32;98605.94;;;13.26;55.48
54329;BME280;40710;51.120;13.136;2022-12-24T06:43:56;98618.50;;;13.58;54.35
54329;BME280;40710;51.120;13.136;2022-12-24T06:46:21;98607.59;;;13.85;53.96
54329;BME280;40710;51.120;13.136;2022-12-24T06:48:46;98596.09;;;14.30;52.46
54329;BME280;40710;51.120;13.136;2022-12-24T06:51:12;98612.22;;;14.04;53.17
54329;BME280;40710;51.120;13.136;2022-12-24T06:53:38;98624.59;;;13.36;54.81
54329;BME280;40710;51.120;13.136;2022-12-24T06:56:08;98624.41;;;13.26;54.78
54329;BME280;40710;51.120;13.136;2022-12-24T06:58:34;98636.97;;;13.92;53.89
54329;BME280;40710;51.120;13.136;2022-12-24T07:01:02;98635.63;;;13.05;54.63
54329;BME280;40710;51.120;13.136;2022-12-24T07:03:28;98632.56;;;13.92;53.57
54329;BME280;40710;51.120;13.136;2022-12-24T07:05:52;98645.28;;;13.87;52.65
54329;BME280;40710;51.120;13.136;2022-12-24T07:08:17;98644.91;;;13.22;54.21
54329;BME280;40710;51.120;13.136;2022-12-24T07:10:42;98644.09;;;14.03;52.53
54329;BME280;40710;51.120;13.136;2022-12-24T07:13:06;98646.72;;;13.80;52.86
54329;BME280;40710;51.120;13.136;2022-12-24T07:15:31;98655.91;;;14.42;52.62
54329;BME280;40710;51.120;13.136;2022-12-24T07:17:55;98660.88;;;13.68;53.19
54329;BME280;40710;51.120;13.136;2022-12-24T07:20:20;98663.88;;;13.74;53.21
54329;BME280;40710;51.120;13.136;2022-12-24T07:22:44;98672.47;;;13.42;53.46
54329;BME280;40710;51.120;13.136;2022-12-24T07:25:09;98685.09;;;13.50;54.15
54329;BME280;40710;51.120;13.136;2022-12-24T07:27:34;98684.31;;;13.84;53.02
54329;BME280;40710;51.120;13.136;2022-12-24T07:29:59;98690.38;;;14.41;51.88
54329;BME280;40710;51.120;13.136;2022-12-24T07:32:23;98699.19;;;14.18;52.62
54329;BME280;40710;51.120;13.136;2022-12-24T07:34:48;98709.84;;;13.60;53.46
54329;BME280;40710;51.120;13.136;2022-12-24T07:37:12;98711.06;;;13.32;54.22
54329;BME280;40710;51.120;13.136;2022-12-24T07:39:37;98716.91;;;12.76;55.99
54329;BME280;40710;51.120;13.136;2022-12-24T07:42:02;98721.78;;;13.18;55.70
54329;BME280;40710;51.120;13.136;2022-12-24T07:44:28;98714.78;;;13.41;56.12
54329;BME280;40710;51.120;13.136;2022-12-24T07:46:53;98729.22;;;12.89;56.82
54329;BME280;40710;51.120;13.136;2022-12-24T07:49:18;98773.84;;;12.79;57.90
54329;BME280;40710;51.120;13.136;2022-12-24T07:51:42;98751.03;;;12.54;58.82
54329;BME280;40710;51.120;13.136;2022-12-24T07:54:07;98734.81;;;13.68;55.96
54329;BME280;40710;51.120;13.136;2022-12-24T07:56:31;98742.88;;;13.18;58.64
54329;BME280;40710;51.120;13.136;2022-12-24T07:58:56;98748.72;;;12.86;59.73
54329;BME280;40710;51.120;13.136;2022-12-24T08:01:21;98749.47;;;13.36;58.59
54329;BME280;40710;51.120;13.136;2022-12-24T08:03:45;98776.00;;;12.48;60.52
54329;BME280;40710;51.120;13.136;2022-12-24T08:06:10;98757.78;;;13.43;58.42
54329;BME280;40710;51.120;13.136;2022-12-24T08:08:36;98770.16;;;13.05;60.41
54329;BME280;40710;51.120;13.136;2022-12-24T08:11:03;98769.22;;;13.07;60.31
54329;BME280;40710;51.120;13.136;2022-12-24T08:13:28;98752.25;;;13.46;58.54
54329;BME280;40710;51.120;13.136;2022-12-24T08:15:52;98779.63;;;12.47;61.25
54329;BME280;40710;51.120;13.136;2022-12-24T08:18:17;98784.38;;;12.42;61.73
54329;BME280;40710;51.120;13.136;2022-12-24T08:20:42;98780.28;;;13.12;59.88
54329;BME280;40710;51.120;13.136;2022-12-24T08:23:07;98776.88;;;12.85;60.15
54329;BME280;40710;51.120;13.136;2022-12-24T08:25:31;98793.38;;;12.63;60.58
54329;BME280;40710;51.120;13.136;2022-12-24T08:27:56;98802.69;;;12.56;61.21
54329;BME280;40710;51.120;13.136;2022-12-24T08:30:21;98791.84;;;12.35;60.39
54329;BME280;40710;51.120;13.136;2022-12-24T08:32:45;98801.16;;;12.78;59.37
54329;BME280;40710;51.120;13.136;2022-12-24T08:35:10;98796.81;;;13.14;59.17
54329;BME280;40710;51.120;13.136;2022-12-24T08:37:34;98812.97;;;13.09;58.96
54329;BME280;40710;51.120;13.136;2022-12-24T08:39:59;98807.72;;;13.09;58.86
54329;BME280;40710;51.120;13.136;2022-12-24T08:42:23;98809.44;;;13.34;58.14
54329;BME280;40710;51.120;13.136;2022-12-24T08:44:48;98814.59;;;12.49;59.10
54329;BME280;40710;51.120;13.136;2022-12-24T08:47:13;98805.47;;;13.99;55.92
54329;BME280;40710;51.120;13.136;2022-12-24T08:49:37;98806.34;;;14.23;54.54
54329;BME280;40710;51.120;13.136;2022-12-24T08:52:03;98829.06;;;12.93;58.31
54329;BME280;40710;51.120;13.136;2022-12-24T08:54:27;98841.59;;;12.53;58.98
54329;BME280;40710;51.120;13.136;2022-12-24T08:56:52;98846.19;;;12.88;57.91
54329;BME280;40710;51.120;13.136;2022-12-24T08:59:16;98821.44;;;13.98;54.82
54329;BME280;40710;51.120;13.136;2022-12-24T09:01:41;98839.59;;;13.43;55.78
54329;BME280;40710;51.120;13.136;2022-12-24T09:04:06;98831.50;;;13.93;54.65
54329;BME280;40710;51.120;13.136;2022-12-24T09:06:31;98838.16;;;13.74;55.17
54329;BME280;40710;51.120;13.136;2022-12-24T09:08:56;98829.94;;;14.60;53.05
54329;BME280;40710;51.120;13.136;2022-12-24T09:11:20;98843.97;;;14.37;53.33
54329;BME280;40710;51.120;13.136;2022-12-24T09:13:45;98851.31;;;13.87;53.64
54329;BME280;40710;51.120;13.136;2022-12-24T09:16:11;98833.91;;;14.77;52.01
54329;BME280;40710;51.120;13.136;2022-12-24T09:18:36;98823.25;;;16.07;48.35
54329;BME280;40710;51.120;13.136;2022-12-24T09:21:03;98832.44;;;16.24;47.94
54329;BME280;40710;51.120;13.136;2022-12-24T09:23:28;98824.00;;;17.02;46.43
54329;BME280;40710;51.120;13.136;2022-12-24T09:25:53;98860.75;;;15.82;48.55
54329;BME280;40710;51.120;13.136;2022-12-24T09:28:18;98830.78;;;16.02;46.77
54329;BME280;40710;51.120;13.136;2022-12-24T09:30:42;98844.47;;;15.54;48.43
54329;BME280;40710;51.120;13.136;2022-12-24T09:33:07;98863.22;;;14.85;49.59
54329;BME280;40710;51.120;13.136;2022-12-24T09:35:31;98860.94;;;15.03;49.68
54329;BME280;40710;51.120;13.136;2022-12-24T09:37:56;98855.94;;;15.76;48.28
54329;BME280;40710;51.120;13.136;2022-12-24T09:40:32;98871.81;;;15.32;48.82
54329;BME280;40710;51.120;13.136;2022-12-24T09:43:00;98874.63;;;15.30;49.69
54329;BME280;40710;51.120;13.136;2022-12-24T09:45:32;98879.13;;;14.62;50.55
54329;BME280;40710;51.120;13.136;2022-12-24T09:48:08;98880.38;;;14.56;50.65
54329;BME280;40710;51.120;13.136;2022-12-24T09:50:53;98896.41;;;14.19;51.01
54329;BME280;40710;51.120;13.136;2022-12-24T09:53:55;98885.13;;;14.75;50.44
54329;BME280;40710;51.120;13.136;2022-12-24T09:56:32;98885.22;;;15.30;49.60
54329;BME280;40710;51.120;13.136;2022-12-24T09:59:02;98891.59;;;14.60;50.74
54329;BME280;40710;51.120;13.136;2022-12-24T10:01:29;98886.56;;;14.91;50.40
54329;BME280;40710;51.120;13.136;2022-12-24T10:03:57;98893.03;;;15.21;49.72
54329;BME280;40710;51.120;13.136;2022-12-24T10:06:32;98899.97;;;14.07;51.48
54329;BME280;40710;51.120;13.136;2022-12-24T10:09:19;98903.75;;;15.19;50.03
54329;BME280;40710;51.120;13.136;2022-12-24T10:17:33;98909.41;;;14.23;51.65
54329;BME280;40710;51.120;13.136;2022-12-24T10:20:24;98913.44;;;14.51;51.75
54329;BME280;40710;51.120;13.136;2022-12-24T10:26:03;98935.00;;;13.87;53.36
54329;BME280;40710;51.120;13.136;2022-12-24T10:28:46;98939.41;;;14.22;53.86
54329;BME280;40710;51.120;13.136;2022-12-24T10:31:12;98951.44;;;13.90;53.76
54329;BME280;40710;51.120;13.136;2022-12-24T10:33:44;98940.69;;;14.05;53.73
54329;BME280;40710;51.120;13.136;2022-12-24T10:36:16;98943.84;;;14.56;53.12
54329;BME280;40710;51.120;13.136;2022-12-24T10:38:42;98939.19;;;14.25;54.00
54329;BME280;40710;51.120;13.136;2022-12-24T10:41:07;98953.78;;;13.58;55.59
54329;BME280;40710;51.120;13.136;2022-12-24T10:43:32;98958.41;;;13.91;55.41
54329;BME280;40710;51.120;13.136;2022-12-24T10:46:06;98946.91;;;14.28;53.67
54329;BME280;40710;51.120;13.136;2022-12-24T10:48:39;98948.59;;;14.29;53.58
54329;BME280;40710;51.120;13.136;2022-12-24T10:51:11;98955.94;;;14.01;55.30
54329;BME280;40710;51.120;13.136;2022-12-24T10:53:48;98971.34;;;13.46;56.82
54329;BME280;40710;51.120;13.136;2022-12-24T10:56:15;98974.19;;;13.56;56.02
54329;BME280;40710;51.120;13.136;2022-12-24T10:58:45;98953.50;;;14.69;54.16
54329;BME280;40710;51.120;13.136;2022-12-24T11:01:14;98953.31;;;14.36;54.51
54329;BME280;40710;51.120;13.136;2022-12-24T11:03:38;98955.84;;;14.03;55.34
54329;BME280;40710;51.120;13.136;2022-12-24T11:06:12;98961.16;;;13.90;54.82
54329;BME280;40710;51.120;13.136;2022-12-24T11:08:41;98948.28;;;15.25;52.86
54329;BME280;40710;51.120;13.136;2022-12-24T11:11:10;98968.09;;;14.86;53.53
54329;BME280;40710;51.120;13.136;2022-12-24T11:13:43;98969.16;;;14.72;53.49
54329;BME280;40710;51.120;13.136;2022-12-24T11:16:24;98987.84;;;12.85;58.66
54329;BME280;40710;51.120;13.136;2022-12-24T11:18:54;98981.16;;;13.57;57.21
54329;BME280;40710;51.120;13.136;2022-12-24T11:21:26;98979.53;;;14.98;54.70
54329;BME280;40710;51.120;13.136;2022-12-24T11:23:58;98988.38;;;14.63;55.67
54329;BME280;40710;51.120;13.136;2022-12-24T11:26:26;98985.47;;;14.30;56.14
54329;BME280;40710;51.120;13.136;2022-12-24T11:29:20;98978.59;;;15.10;53.61
54329;BME280;40710;51.120;13.136;2022-12-24T11:31:46;98986.75;;;14.96;54.50
54329;BME280;40710;51.120;13.136;2022-12-24T11:34:29;98994.91;;;14.81;54.15
54329;BME280;40710;51.120;13.136;2022-12-24T11:37:17;98994.22;;;15.13;54.41
54329;BME280;40710;51.120;13.136;2022-12-24T11:39:50;99007.09;;;14.00;57.23
54329;BME280;40710;51.120;13.136;2022-12-24T11:42:37;98999.25;;;14.93;55.19
54329;BME280;40710;51.120;13.136;2022-12-24T11:45:16;99002.03;;;15.03;56.65
54329;BME280;40710;51.120;13.136;2022-12-24T11:47:42;99011.66;;;14.57;56.74
54329;BME280;40710;51.120;13.136;2022-12-24T11:55:56;99012.47;;;14.93;56.01
54329;BME280;40710;51.120;13.136;2022-12-24T11:58:41;99017.97;;;14.44;56.84
54329;BME280;40710;51.120;13.136;2022-12-24T12:01:26;99009.53;;;14.38;58.14
54329;BME280;40710;51.120;13.136;2022-12-24T12:04:10;99027.63;;;14.21;59.28
54329;BME280;40710;51.120;13.136;2022-12-24T12:06:53;99018.09;;;14.66;56.81
54329;BME280;40710;51.120;13.136;2022-12-24T12:09:23;99020.06;;;14.87;56.62
54329;BME280;40710;51.120;13.136;2022-12-24T12:11:59;99023.53;;;14.16;58.34
54329;BME280;40710;51.120;13.136;2022-12-24T12:14:39;99017.59;;;14.72;57.18
54329;BME280;40710;51.120;13.136;2022-12-24T12:22:47;99017.69;;;14.60;56.56
54329;BME280;40710;51.120;13.136;2022-12-24T12:25:51;99009.16;;;15.25;55.41
54329;BME280;40710;51.120;13.136;2022-12-24T12:28:40;99011.75;;;14.91;55.44
54329;BME280;40710;51.120;13.136;2022-12-24T12:31:26;99013.69;;;14.89;55.83
54329;BME280;40710;51.120;13.136;2022-12-24T12:34:08;99026.56;;;14.94;55.78
54329;BME280;40710;51.120;13.136;2022-12-24T12:36:42;99036.94;;;14.13;57.86
54329;BME280;40710;51.120;13.136;2022-12-24T12:39:10;99035.81;;;13.68;59.10
54329;BME280;40710;51.120;13.136;2022-12-24T12:41:59;99030.59;;;14.16;57.51
54329;BME280;40710;51.120;13.136;2022-12-24T12:44:47;99026.81;;;14.07;58.56
54329;BME280;40710;51.120;13.136;2022-12-24T12:47:36;99046.66;;;13.76;58.95
54329;BME280;40710;51.120;13.136;2022-12-24T12:50:32;99032.84;;;13.72;58.72
54329;BME280;40710;51.120;13.136;2022-12-24T12:53:14;99040.41;;;13.27;60.42
54329;BME280;40710;51.120;13.136;2022-12-24T12:58:33;99031.59;;;13.78;58.60
54329;BME280;40710;51.120;13.136;2022-12-24T13:01:12;99046.97;;;13.84;58.81
54329;BME280;40710;51.120;13.136;2022-12-24T13:06:51;99041.72;;;14.32;58.28
54329;BME280;40710;51.120;13.136;2022-12-24T13:10:04;99044.72;;;13.54;58.61
54329;BME280;40710;51.120;13.136;2022-12-24T13:20:53;99030.03;;;14.83;56.43
54329;BME280;40710;51.120;13.136;2022-12-24T13:23:23;99031.69;;;14.49;57.00
54329;BME280;40710;51.120;13.136;2022-12-24T13:25:55;99047.38;;;13.91;58.71
54329;BME280;40710;51.120;13.136;2022-12-24T13:30:50;99039.97;;;14.44;57.72
54329;BME280;40710;51.120;13.136;2022-12-24T13:36:02;99057.34;;;13.74;59.34
54329;BME280;40710;51.120;13.136;2022-12-24T13:49:32;99060.91;;;13.99;57.47
54329;BME280;40710;51.120;13.136;2022-12-24T13:52:06;99074.06;;;13.62;58.47
54329;BME280;40710;51.120;13.136;2022-12-24T13:54:31;99063.81;;;14.07;57.91
54329;BME280;40710;51.120;13.136;2022-12-24T13:56:58;99062.19;;;14.42;56.36
54329;BME280;40710;51.120;13.136;2022-12-24T13:59:38;99071.19;;;13.65;58.07
54329;BME280;40710;51.120;13.136;2022-12-24T14:02:04;99069.31;;;14.52;55.97
54329;BME280;40710;51.120;13.136;2022-12-24T14:04:35;99075.09;;;13.72;58.19
54329;BME280;40710;51.120;13.136;2022-12-24T14:07:03;99081.16;;;13.98;57.33